Time;durP1;ratioP1;P1;durP2;ratioP2;P2;SDS_P1;SDS_P2;PMS_P1;PMS_P2;Temp;Humidity;BMP_temperature;BMP_pressure;BME280_temperature;BME280_humidity;BME280_pressure;Samples;Min_cycle;Max_cycle;Signal;HPM_P1;HPM_P2
2022/01/16 00:05:07;;;;;;;19.43;14.13;;;7.20;99.90;;;;;;5038446;28;20229;-76
2022/01/16 00:07:35;;;;;;;24.67;15.17;;;7.20;99.90;;;;;;5046010;28;20231;-75
2022/01/16 00:10:01;;;;;;;24.87;15.37;;;7.10;99.90;;;;;;5048072;28;20262;-76
2022/01/16 00:12:29;;;;;;;19.50;13.97;;;7.10;99.90;;;;;;5043002;28;20337;-74
2022/01/16 00:14:56;;;;;;;21.50;13.93;;;7.10;99.90;;;;;;5041812;28;20703;-76
2022/01/16 00:17:23;;;;;;;21.57;13.90;;;7.00;99.90;;;;;;5039244;28;20899;-76
2022/01/16 00:19:51;;;;;;;21.93;14.03;;;6.90;99.90;;;;;;5036277;28;20312;-76
2022/01/16 00:22:22;;;;;;;22.13;15.10;;;6.90;99.90;;;;;;5048625;28;20226;-76
2022/01/16 00:24:50;;;;;;;22.23;14.60;;;6.80;99.90;;;;;;5046888;28;20263;-76
2022/01/16 00:27:17;;;;;;;20.37;14.57;;;6.70;99.90;;;;;;5040091;28;20224;-75
2022/01/16 00:29:44;;;;;;;22.93;14.10;;;6.70;99.90;;;;;;5040980;28;20266;-76
2022/01/16 00:32:10;;;;;;;22.23;14.10;;;6.60;99.90;;;;;;5042035;28;20221;-76
2022/01/16 00:34:37;;;;;;;20.10;14.60;;;6.60;99.90;;;;;;5036134;28;20243;-76
2022/01/16 00:37:04;;;;;;;22.57;14.50;;;6.60;99.90;;;;;;5034127;28;20249;-75
2022/01/16 00:39:31;;;;;;;19.70;14.13;;;6.50;99.90;;;;;;5045566;28;20239;-76
2022/01/16 00:41:59;;;;;;;23.40;15.17;;;6.50;99.90;;;;;;5045937;28;20236;-76
2022/01/16 00:44:25;;;;;;;22.40;14.10;;;6.40;99.90;;;;;;5042521;28;20235;-76
2022/01/16 00:46:52;;;;;;;23.67;15.03;;;6.40;99.90;;;;;;5041844;28;20225;-77
2022/01/16 00:49:19;;;;;;;21.27;14.57;;;6.30;99.90;;;;;;5044035;28;20229;-77
2022/01/16 00:51:46;;;;;;;21.23;14.40;;;6.30;99.90;;;;;;5045209;28;20237;-76
2022/01/16 00:54:13;;;;;;;20.33;13.93;;;6.20;99.90;;;;;;5047468;28;20245;-75
2022/01/16 00:56:40;;;;;;;24.90;15.83;;;6.20;99.90;;;;;;5039597;28;20225;-76
2022/01/16 00:59:08;;;;;;;21.23;14.37;;;6.20;99.90;;;;;;5040312;28;20237;-76
2022/01/16 01:01:35;;;;;;;20.97;14.03;;;6.10;99.90;;;;;;5042701;28;20695;-77
2022/01/16 01:04:02;;;;;;;20.53;13.57;;;6.10;99.90;;;;;;5039832;28;20701;-77
2022/01/16 01:06:28;;;;;;;21.20;14.13;;;6.10;99.90;;;;;;5038952;28;20226;-77
2022/01/16 01:08:55;;;;;;;21.63;14.80;;;6.00;99.90;;;;;;5041993;28;20589;-77
2022/01/16 01:11:26;;;;;;;20.40;14.03;;;6.00;99.90;;;;;;5041482;28;20626;-77
2022/01/16 01:14:14;;;;;;;21.83;15.00;;;5.90;99.90;;;;;;5045696;28;20229;-77
2022/01/16 01:16:51;;;;;;;22.97;15.73;;;5.90;99.90;;;;;;5037455;28;20252;-77
2022/01/16 01:19:20;;;;;;;23.23;15.17;;;5.90;99.90;;;;;;5036396;28;20721;-78
2022/01/16 01:21:47;;;;;;;24.17;14.00;;;5.90;99.90;;;;;;5050799;28;20285;-78
2022/01/16 01:24:14;;;;;;;21.93;14.77;;;5.80;99.90;;;;;;5042678;28;20307;-78
2022/01/16 01:26:49;;;;;;;20.87;14.37;;;5.80;99.90;;;;;;5040675;28;20245;-77
2022/01/16 01:29:19;;;;;;;21.73;14.57;;;5.80;99.90;;;;;;5040801;28;20583;-77
2022/01/16 01:31:48;;;;;;;21.97;14.80;;;5.80;99.90;;;;;;5044309;28;20239;-78
2022/01/16 01:34:15;;;;;;;26.20;15.27;;;5.70;99.90;;;;;;5041973;28;20222;-78
2022/01/16 01:36:41;;;;;;;22.70;14.63;;;5.70;99.90;;;;;;5045638;28;20237;-77
2022/01/16 01:39:08;;;;;;;21.53;15.53;;;5.70;99.90;;;;;;5041600;28;20256;-77
2022/01/16 01:41:36;;;;;;;22.33;15.47;;;5.70;99.90;;;;;;5043855;28;20319;-77
2022/01/16 01:52:17;;;;;;;23.73;15.27;;;5.60;99.90;;;;;;5042637;28;20244;-78
2022/01/16 01:54:44;;;;;;;23.23;14.93;;;5.60;99.90;;;;;;5042073;28;20249;-76
2022/01/16 01:57:11;;;;;;;23.47;15.40;;;5.60;99.90;;;;;;5035109;28;20270;-76
2022/01/16 01:59:39;;;;;;;21.17;14.50;;;5.50;99.90;;;;;;5043495;28;20243;-77
2022/01/16 02:02:08;;;;;;;22.53;14.67;;;5.50;99.90;;;;;;5036032;28;20278;-78
2022/01/16 02:04:35;;;;;;;23.37;16.20;;;5.60;99.90;;;;;;5036329;28;20246;-78
2022/01/16 02:07:02;;;;;;;22.70;15.30;;;5.60;99.90;;;;;;5046074;28;20228;-79
2022/01/16 02:09:28;;;;;;;25.03;17.57;;;5.60;99.90;;;;;;5044719;28;20732;-80
2022/01/16 02:11:55;;;;;;;24.10;15.03;;;5.60;99.90;;;;;;5052843;28;20230;-79
2022/01/16 02:14:29;;;;;;;23.00;16.00;;;5.70;99.90;;;;;;5044630;28;20228;-79
2022/01/16 02:28:07;;;;;;;23.83;16.73;;;5.80;99.90;;;;;;5043345;28;20220;-78
2022/01/16 02:31:01;;;;;;;26.13;17.47;;;5.90;99.90;;;;;;5041037;28;20227;-78
2022/01/16 02:36:26;;;;;;;37.90;18.60;;;5.90;99.90;;;;;;5039963;28;20232;-80
2022/01/16 02:38:57;;;;;;;30.10;16.90;;;5.90;99.90;;;;;;5040032;28;20219;-78
2022/01/16 02:41:25;;;;;;;29.13;17.60;;;5.90;99.90;;;;;;5043937;28;21495;-80
2022/01/16 02:43:54;;;;;;;28.57;17.93;;;5.90;99.90;;;;;;5044204;28;20772;-77
2022/01/16 02:46:39;;;;;;;31.97;19.77;;;6.00;99.90;;;;;;5036678;28;20226;-78
2022/01/16 02:49:19;;;;;;;29.67;18.53;;;5.90;99.90;;;;;;5041869;28;20921;-78
2022/01/16 02:51:45;;;;;;;33.97;19.57;;;5.90;99.90;;;;;;5054614;28;20236;-78
2022/01/16 02:54:13;;;;;;;28.97;18.27;;;6.00;99.90;;;;;;5039984;28;20228;-78
2022/01/16 02:56:40;;;;;;;32.53;19.77;;;6.00;99.90;;;;;;5041353;28;20219;-78
2022/01/16 02:59:10;;;;;;;32.47;20.13;;;6.00;99.90;;;;;;5040951;28;20236;-78
2022/01/16 03:01:36;;;;;;;31.00;19.13;;;6.00;99.90;;;;;;5044850;28;20231;-78
2022/01/16 03:04:04;;;;;;;32.77;19.30;;;6.00;99.90;;;;;;5041586;28;20222;-77
2022/01/16 03:06:30;;;;;;;31.13;20.00;;;6.00;99.90;;;;;;5041663;28;20234;-77
2022/01/16 03:08:57;;;;;;;36.53;20.23;;;6.00;99.90;;;;;;5039432;28;20332;-78
2022/01/16 03:11:34;;;;;;;34.77;20.37;;;6.10;99.90;;;;;;5040224;28;20578;-77
2022/01/16 03:14:01;;;;;;;33.77;20.93;;;6.10;99.90;;;;;;5043499;28;20220;-78
2022/01/16 03:16:28;;;;;;;34.33;20.13;;;6.10;99.90;;;;;;5051006;28;20331;-77
2022/01/16 03:21:54;;;;;;;34.47;20.27;;;6.10;99.90;;;;;;4960520;28;20786;-78
2022/01/16 03:24:22;;;;;;;37.00;23.00;;;6.20;99.90;;;;;;4978811;28;20337;-76
2022/01/16 03:26:50;;;;;;;54.00;23.00;;;6.10;99.90;;;;;;5016573;28;20620;-78
2022/01/16 03:29:16;;;;;;;35.47;22.53;;;6.10;99.90;;;;;;5050288;28;20246;-78
2022/01/16 03:31:43;;;;;;;57.40;24.00;;;6.20;99.90;;;;;;5049082;28;20229;-78
2022/01/16 03:34:10;;;;;;;55.53;24.07;;;6.20;99.90;;;;;;5044958;28;20537;-78
2022/01/16 03:36:37;;;;;;;50.27;23.47;;;6.20;99.90;;;;;;5047431;28;20237;-78
2022/01/16 03:39:04;;;;;;;43.20;24.73;;;6.20;99.90;;;;;;5054689;28;20229;-78
2022/01/16 03:41:33;;;;;;;68.57;24.87;;;6.20;99.90;;;;;;5047158;28;20237;-77
2022/01/16 03:44:02;;;;;;;76.53;25.67;;;6.30;99.90;;;;;;5037849;28;20559;-79
2022/01/16 03:46:34;;;;;;;39.83;23.33;;;6.20;99.90;;;;;;5058059;28;20232;-78
2022/01/16 03:49:05;;;;;;;171.57;31.90;;;6.30;99.90;;;;;;5053000;28;20226;-78
2022/01/16 03:51:32;;;;;;;146.67;29.73;;;6.30;99.90;;;;;;5042980;28;20316;-78
2022/01/16 03:53:58;;;;;;;55.77;24.73;;;6.30;99.90;;;;;;5046432;28;20223;-76
2022/01/16 03:56:25;;;;;;;40.00;23.63;;;6.30;99.90;;;;;;5042695;28;20816;-77
2022/01/16 03:58:52;;;;;;;46.20;23.93;;;6.30;99.90;;;;;;5061378;28;20229;-79
2022/01/16 04:01:20;;;;;;;46.77;24.77;;;6.30;99.90;;;;;;5044709;28;20247;-79
2022/01/16 04:03:47;;;;;;;99.70;29.00;;;6.40;99.90;;;;;;5047986;28;20238;-77
2022/01/16 04:06:14;;;;;;;55.50;26.13;;;6.40;99.90;;;;;;5048797;28;20233;-78
2022/01/16 04:08:40;;;;;;;43.83;24.67;;;6.40;99.90;;;;;;5044916;28;20234;-77
2022/01/16 04:11:08;;;;;;;41.77;24.60;;;6.40;99.90;;;;;;5046811;28;20222;-77
2022/01/16 04:13:35;;;;;;;42.67;24.37;;;6.50;99.90;;;;;;5052260;28;20745;-79
2022/01/16 04:16:01;;;;;;;41.50;24.57;;;6.40;99.90;;;;;;5048270;28;20227;-77
2022/01/16 04:18:30;;;;;;;39.77;23.73;;;6.50;99.90;;;;;;5051833;28;20224;-78
2022/01/16 04:20:57;;;;;;;47.43;24.93;;;6.50;99.90;;;;;;5048368;28;20231;-78
2022/01/16 04:23:24;;;;;;;39.67;23.93;;;6.50;99.90;;;;;;5046378;28;20230;-78
2022/01/16 04:25:50;;;;;;;41.20;23.00;;;6.50;99.90;;;;;;5045731;28;20241;-77
2022/01/16 04:28:22;;;;;;;39.97;22.83;;;6.50;99.90;;;;;;5045412;28;20253;-77
2022/01/16 04:30:49;;;;;;;41.83;23.00;;;6.40;99.90;;;;;;5038020;28;20211;-75
2022/01/16 04:33:16;;;;;;;39.80;22.37;;;6.40;99.90;;;;;;5043261;28;20312;-78
2022/01/16 04:35:44;;;;;;;40.77;22.77;;;6.40;99.90;;;;;;5047316;28;20233;-78
2022/01/16 04:38:11;;;;;;;41.97;22.37;;;6.50;99.90;;;;;;5044295;28;20699;-77
2022/01/16 04:40:44;;;;;;;46.13;23.87;;;6.50;99.90;;;;;;5041329;28;20891;-78
2022/01/16 04:45:59;;;;;;;44.80;24.67;;;6.50;99.90;;;;;;5048309;28;20237;-78
2022/01/16 04:48:26;;;;;;;44.93;23.93;;;6.50;99.90;;;;;;5049223;28;20662;-79
2022/01/16 04:50:54;;;;;;;45.87;24.50;;;6.50;99.90;;;;;;5047086;28;20313;-79
2022/01/16 04:53:21;;;;;;;42.50;23.97;;;6.50;99.90;;;;;;5040324;28;20244;-79
2022/01/16 04:55:49;;;;;;;41.37;24.00;;;6.50;99.90;;;;;;5044045;28;20241;-78
2022/01/16 04:58:18;;;;;;;41.70;23.30;;;6.60;99.90;;;;;;5055991;28;20309;-79
2022/01/16 05:00:44;;;;;;;40.37;24.17;;;6.60;99.90;;;;;;5040332;28;20230;-78
2022/01/16 05:03:11;;;;;;;43.43;23.73;;;6.60;99.90;;;;;;5041220;28;20245;-78
2022/01/16 05:05:38;;;;;;;41.33;24.37;;;6.60;99.90;;;;;;5050187;28;20243;-79
2022/01/16 05:08:06;;;;;;;40.73;24.97;;;6.60;99.90;;;;;;5047465;28;20215;-79
2022/01/16 05:10:33;;;;;;;41.47;23.73;;;6.60;99.90;;;;;;5048813;28;20245;-79
2022/01/16 05:13:26;;;;;;;39.87;23.87;;;6.60;99.90;;;;;;5045511;28;20226;-79
2022/01/16 05:18:30;;;;;;;39.97;23.80;;;6.60;99.90;;;;;;5048646;28;20234;-78
2022/01/16 05:20:57;;;;;;;38.43;23.00;;;6.60;99.90;;;;;;5042102;28;20238;-79
2022/01/16 05:23:25;;;;;;;42.23;24.90;;;6.60;99.90;;;;;;5044491;28;20229;-79
2022/01/16 05:25:52;;;;;;;37.53;22.30;;;6.60;99.90;;;;;;5056941;28;20231;-80
2022/01/16 05:28:19;;;;;;;43.90;24.80;;;6.60;99.90;;;;;;5037661;28;20733;-80
2022/01/16 05:30:45;;;;;;;38.90;23.37;;;6.60;99.90;;;;;;5047570;28;20237;-77
2022/01/16 05:33:12;;;;;;;38.87;23.63;;;6.60;99.90;;;;;;5050267;28;20223;-79
2022/01/16 05:35:39;;;;;;;39.20;22.27;;;6.70;99.90;;;;;;5041437;28;20229;-78
2022/01/16 05:38:06;;;;;;;38.90;22.10;;;6.60;99.90;;;;;;5050387;28;20225;-79
2022/01/16 05:40:34;;;;;;;36.37;21.07;;;6.60;99.90;;;;;;5040454;28;21098;-78
2022/01/16 05:43:01;;;;;;;38.47;21.73;;;6.60;99.90;;;;;;5031002;28;20588;-79
2022/01/16 05:45:28;;;;;;;36.40;21.00;;;6.60;99.90;;;;;;5047759;28;21601;-78
2022/01/16 05:47:55;;;;;;;39.43;22.10;;;6.60;99.90;;;;;;5039488;28;20591;-78
2022/01/16 05:50:22;;;;;;;34.97;20.97;;;6.60;99.90;;;;;;5050790;28;20224;-78
2022/01/16 05:52:49;;;;;;;36.07;20.57;;;6.60;99.90;;;;;;5048334;28;20243;-79
2022/01/16 05:55:16;;;;;;;34.30;20.43;;;6.60;99.90;;;;;;5044619;28;20230;-79
2022/01/16 05:57:46;;;;;;;33.10;20.17;;;6.60;99.90;;;;;;5043641;28;20230;-77
2022/01/16 06:00:14;;;;;;;35.67;20.37;;;6.70;99.90;;;;;;5046262;28;20300;-78
2022/01/16 06:02:41;;;;;;;36.87;21.07;;;6.60;99.90;;;;;;5046446;28;20234;-77
2022/01/16 06:05:09;;;;;;;39.40;21.43;;;6.60;99.90;;;;;;5051715;28;20245;-78
2022/01/16 06:07:36;;;;;;;38.67;21.57;;;6.60;99.90;;;;;;5056170;28;20258;-82
2022/01/16 06:10:03;;;;;;;37.50;21.43;;;6.60;99.90;;;;;;5050065;28;20234;-82
2022/01/16 06:12:30;;;;;;;38.17;21.60;;;6.60;99.90;;;;;;5043103;28;20246;-81
2022/01/16 06:15:00;;;;;;;35.37;20.67;;;6.50;99.90;;;;;;5047373;28;20693;-81
2022/01/16 06:17:27;;;;;;;37.20;19.23;;;6.50;99.90;;;;;;5040963;28;20240;-81
2022/01/16 06:19:53;;;;;;;36.60;19.83;;;6.50;99.90;;;;;;5039518;28;20224;-81
2022/01/16 06:22:20;;;;;;;37.37;20.80;;;6.60;99.90;;;;;;5052702;28;20221;-81
2022/01/16 06:24:46;;;;;;;40.13;20.53;;;6.60;99.90;;;;;;5051401;28;20585;-81
2022/01/16 06:27:13;;;;;;;40.43;22.13;;;6.50;99.90;;;;;;5046998;28;20223;-80
2022/01/16 06:29:40;;;;;;;40.17;21.97;;;6.50;99.90;;;;;;5038154;28;20243;-80
2022/01/16 06:32:08;;;;;;;46.60;23.63;;;6.50;99.90;;;;;;5048469;28;20245;-80
2022/01/16 06:34:35;;;;;;;49.20;24.50;;;6.50;99.90;;;;;;5038351;28;20250;-80
2022/01/16 06:37:02;;;;;;;47.27;24.10;;;6.50;99.90;;;;;;5044329;28;20233;-79
2022/01/16 06:39:29;;;;;;;44.60;23.93;;;6.50;99.90;;;;;;5042622;28;20420;-79
2022/01/16 06:41:56;;;;;;;49.57;24.90;;;6.50;99.90;;;;;;5045284;28;20372;-80
2022/01/16 06:44:23;;;;;;;47.07;23.90;;;6.50;99.90;;;;;;5032868;28;20746;-80
2022/01/16 06:46:50;;;;;;;46.53;23.67;;;6.50;99.90;;;;;;5042434;28;20241;-80
2022/01/16 06:49:18;;;;;;;46.40;23.93;;;6.50;99.90;;;;;;5041799;28;20231;-81
2022/01/16 06:51:45;;;;;;;47.13;24.13;;;6.50;99.90;;;;;;5040627;28;20231;-80
2022/01/16 06:54:12;;;;;;;48.20;25.13;;;6.60;99.90;;;;;;5044094;28;20284;-80
2022/01/16 06:56:39;;;;;;;46.30;23.83;;;6.60;99.90;;;;;;5039939;28;20230;-81
2022/01/16 06:59:05;;;;;;;49.10;25.30;;;6.50;99.90;;;;;;5041705;28;20318;-80
2022/01/16 07:01:32;;;;;;;50.73;25.83;;;6.50;99.90;;;;;;5037487;28;20242;-80
2022/01/16 07:03:59;;;;;;;51.73;26.70;;;6.60;99.90;;;;;;5036658;28;20321;-80
2022/01/16 07:06:27;;;;;;;55.10;27.23;;;6.60;99.90;;;;;;5033544;28;20252;-80
2022/01/16 07:08:53;;;;;;;51.57;27.37;;;6.60;99.90;;;;;;5038577;28;20628;-80
2022/01/16 07:11:20;;;;;;;55.27;27.90;;;6.60;99.90;;;;;;5039295;28;20235;-80
2022/01/16 07:13:47;;;;;;;49.57;25.97;;;6.60;99.90;;;;;;5040208;28;20236;-81
2022/01/16 07:16:14;;;;;;;50.80;25.97;;;6.60;99.90;;;;;;5039114;28;20223;-80
2022/01/16 07:18:40;;;;;;;50.33;25.17;;;6.60;99.90;;;;;;5043864;28;20344;-80
2022/01/16 07:21:13;;;;;;;48.47;25.30;;;6.60;99.90;;;;;;5046483;28;20313;-80
2022/01/16 07:23:41;;;;;;;51.37;25.63;;;6.70;99.90;;;;;;5035542;28;20220;-80
2022/01/16 07:26:07;;;;;;;44.00;22.97;;;6.70;99.90;;;;;;5043961;28;20232;-80
2022/01/16 07:28:34;;;;;;;43.80;22.57;;;6.70;99.90;;;;;;5041835;28;20229;-83
2022/01/16 07:31:01;;;;;;;43.53;23.67;;;6.70;99.90;;;;;;5036310;28;20235;-79
2022/01/16 07:33:28;;;;;;;44.30;23.33;;;6.70;99.90;;;;;;5041240;28;20234;-79
2022/01/16 07:35:54;;;;;;;43.77;21.70;;;6.70;99.90;;;;;;5049448;28;20248;-79
2022/01/16 07:38:21;;;;;;;45.83;23.83;;;6.70;99.90;;;;;;5042789;28;20221;-79
2022/01/16 07:40:49;;;;;;;39.63;22.53;;;6.70;99.90;;;;;;5044511;28;20631;-80
2022/01/16 07:43:16;;;;;;;43.43;21.50;;;6.70;99.90;;;;;;5050584;28;20255;-79
2022/01/16 07:45:43;;;;;;;48.20;23.00;;;6.70;99.90;;;;;;5047111;28;20233;-79
2022/01/16 07:48:10;;;;;;;47.23;24.33;;;6.70;99.90;;;;;;5045576;28;20736;-79
2022/01/16 07:50:38;;;;;;;43.77;21.47;;;6.70;99.90;;;;;;5046261;28;20238;-79
2022/01/16 07:53:05;;;;;;;47.67;23.30;;;6.70;99.90;;;;;;5043613;28;20241;-80
2022/01/16 07:55:33;;;;;;;47.97;22.37;;;6.70;99.90;;;;;;5049542;28;20274;-80
2022/01/16 07:58:01;;;;;;;48.53;24.27;;;6.70;99.90;;;;;;5036840;28;20219;-80
2022/01/16 08:00:29;;;;;;;49.83;24.40;;;6.70;99.90;;;;;;5049412;28;20238;-82
2022/01/16 08:02:57;;;;;;;47.00;24.40;;;6.70;99.90;;;;;;5048115;28;20235;-79
2022/01/16 08:05:24;;;;;;;50.67;25.10;;;6.60;99.90;;;;;;5041513;28;20695;-79
2022/01/16 08:07:51;;;;;;;52.10;25.23;;;6.60;99.90;;;;;;5039359;28;20234;-80
2022/01/16 08:10:18;;;;;;;49.60;24.33;;;6.60;99.90;;;;;;5044556;28;20216;-85
2022/01/16 08:12:44;;;;;;;52.67;25.90;;;6.60;99.90;;;;;;5041255;28;20243;-83
2022/01/16 08:15:13;;;;;;;58.03;25.93;;;6.60;99.90;;;;;;5040020;28;20939;-80
2022/01/16 08:17:40;;;;;;;56.90;27.00;;;6.60;99.90;;;;;;5045073;28;20231;-81
2022/01/16 08:20:08;;;;;;;58.77;28.60;;;6.60;99.90;;;;;;5047058;28;20232;-81
2022/01/16 08:22:36;;;;;;;63.63;28.70;;;6.60;99.90;;;;;;5048436;28;20870;-79
2022/01/16 08:25:03;;;;;;;64.23;28.07;;;6.60;99.90;;;;;;5044844;28;20307;-79
2022/01/16 08:27:30;;;;;;;65.00;29.30;;;6.60;99.90;;;;;;5043751;28;20230;-81
2022/01/16 08:29:57;;;;;;;57.33;28.20;;;6.60;99.90;;;;;;5040458;28;21037;-80
2022/01/16 08:32:25;;;;;;;62.60;29.07;;;6.60;99.90;;;;;;5037346;28;20254;-82
2022/01/16 08:34:52;;;;;;;64.00;29.57;;;6.60;99.90;;;;;;5046078;28;20326;-82
2022/01/16 08:37:19;;;;;;;66.80;30.57;;;6.60;99.90;;;;;;5044277;28;20241;-81
2022/01/16 08:39:45;;;;;;;65.63;30.13;;;6.70;99.90;;;;;;5041455;28;20595;-78
2022/01/16 08:42:12;;;;;;;65.73;30.73;;;6.70;99.90;;;;;;5041998;28;20228;-78
2022/01/16 08:44:39;;;;;;;60.40;30.00;;;6.70;99.90;;;;;;5036243;28;20232;-77
2022/01/16 08:47:07;;;;;;;60.87;30.60;;;6.70;99.90;;;;;;5040697;28;20226;-77
2022/01/16 08:49:35;;;;;;;64.77;29.67;;;6.70;99.90;;;;;;5050545;28;20905;-78
2022/01/16 08:52:02;;;;;;;65.93;31.53;;;6.70;99.90;;;;;;5046875;28;20225;-78
2022/01/16 08:54:29;;;;;;;66.70;31.00;;;6.70;99.90;;;;;;5040190;28;20235;-78
2022/01/16 08:56:56;;;;;;;66.20;30.80;;;6.70;99.90;;;;;;5045551;28;20228;-78
2022/01/16 08:59:23;;;;;;;64.73;30.87;;;6.70;99.90;;;;;;5043715;28;20753;-78
2022/01/16 09:01:49;;;;;;;64.90;32.27;;;6.70;99.90;;;;;;5050958;28;20695;-78
2022/01/16 09:04:16;;;;;;;63.43;30.00;;;6.70;99.90;;;;;;5039842;28;20607;-78
2022/01/16 09:06:44;;;;;;;65.47;29.93;;;6.70;99.90;;;;;;5043798;28;20247;-78
2022/01/16 09:09:11;;;;;;;63.77;31.47;;;6.70;99.90;;;;;;5044868;28;20240;-76
2022/01/16 09:11:38;;;;;;;60.73;29.87;;;6.70;99.90;;;;;;5045739;28;20238;-78
2022/01/16 09:14:04;;;;;;;67.57;30.03;;;6.70;99.90;;;;;;5047398;28;20221;-78
2022/01/16 09:16:31;;;;;;;69.07;31.70;;;6.80;99.90;;;;;;5050456;28;20334;-77
2022/01/16 09:18:58;;;;;;;65.47;30.27;;;6.70;99.90;;;;;;5052117;28;20225;-77
2022/01/16 09:21:25;;;;;;;65.87;31.00;;;6.70;99.90;;;;;;5052986;28;20248;-78
2022/01/16 09:23:53;;;;;;;60.47;29.43;;;6.70;99.90;;;;;;5040864;28;20243;-77
2022/01/16 09:26:20;;;;;;;73.47;31.70;;;6.70;99.90;;;;;;5047996;28;20221;-77
2022/01/16 09:28:47;;;;;;;67.67;30.77;;;6.70;99.90;;;;;;5048354;28;20251;-78
2022/01/16 09:31:13;;;;;;;67.23;30.30;;;6.70;99.90;;;;;;5035040;28;20246;-77
2022/01/16 09:33:40;;;;;;;70.10;31.87;;;6.70;99.90;;;;;;5052599;28;20712;-77
2022/01/16 09:36:08;;;;;;;60.97;28.87;;;6.70;99.90;;;;;;5041698;28;20799;-77
2022/01/16 09:38:36;;;;;;;67.67;30.57;;;6.60;99.90;;;;;;5047191;28;20228;-78
2022/01/16 09:41:05;;;;;;;70.43;32.10;;;6.60;99.90;;;;;;5048564;28;20272;-78
2022/01/16 09:43:33;;;;;;;69.50;31.60;;;6.70;99.90;;;;;;5047081;28;20300;-78
2022/01/16 09:46:00;;;;;;;69.87;30.93;;;6.70;99.90;;;;;;5041947;28;20329;-78
2022/01/16 09:48:27;;;;;;;68.47;31.33;;;6.70;99.90;;;;;;5040525;28;20230;-77
2022/01/16 09:50:54;;;;;;;67.70;30.70;;;6.70;99.90;;;;;;5034926;28;20277;-77
2022/01/16 09:53:21;;;;;;;69.97;31.77;;;6.70;99.90;;;;;;5034473;28;20235;-78
2022/01/16 09:55:49;;;;;;;71.03;30.83;;;6.70;99.90;;;;;;5038407;28;20254;-77
2022/01/16 09:58:17;;;;;;;66.47;30.20;;;6.70;99.90;;;;;;5045009;28;20321;-78
2022/01/16 10:00:44;;;;;;;67.90;30.37;;;6.70;99.90;;;;;;5036967;28;20222;-77
2022/01/16 10:03:11;;;;;;;67.47;31.27;;;6.70;99.90;;;;;;5034569;28;20222;-78
2022/01/16 10:05:39;;;;;;;76.43;31.07;;;6.70;99.90;;;;;;5040963;28;20922;-78
2022/01/16 10:08:08;;;;;;;72.17;31.57;;;6.70;99.90;;;;;;5033465;28;20784;-77
2022/01/16 10:10:37;;;;;;;63.50;31.23;;;6.70;99.90;;;;;;5037469;28;20304;-78
2022/01/16 10:13:22;;;;;;;67.30;29.57;;;6.70;99.90;;;;;;5033949;28;20231;-77
2022/01/16 10:15:53;;;;;;;68.43;30.10;;;6.70;99.90;;;;;;5029616;28;20236;-77
2022/01/16 10:18:32;;;;;;;69.50;31.97;;;6.80;99.90;;;;;;5027817;28;20298;-77
2022/01/16 10:20:59;;;;;;;63.97;31.87;;;6.80;99.90;;;;;;5036954;28;20235;-78
2022/01/16 10:23:26;;;;;;;72.20;31.33;;;6.80;99.90;;;;;;5029954;28;20230;-77
2022/01/16 10:25:53;;;;;;;72.47;31.50;;;6.80;99.90;;;;;;5036598;28;20237;-77
2022/01/16 10:28:23;;;;;;;67.10;29.37;;;6.80;99.90;;;;;;5028838;28;20261;-78
2022/01/16 10:30:51;;;;;;;64.83;29.87;;;6.80;99.90;;;;;;5035967;28;20231;-77
2022/01/16 10:33:20;;;;;;;62.93;30.07;;;6.90;99.90;;;;;;5028853;28;20227;-78
2022/01/16 10:35:48;;;;;;;67.17;29.87;;;6.90;99.90;;;;;;5032358;28;20227;-78
2022/01/16 10:38:18;;;;;;;65.63;29.73;;;6.90;99.90;;;;;;5036988;28;20606;-78
2022/01/16 10:40:50;;;;;;;69.87;30.30;;;6.90;99.90;;;;;;5036157;28;21562;-77
2022/01/16 10:43:18;;;;;;;64.87;29.40;;;6.90;99.90;;;;;;5031266;28;20230;-78
2022/01/16 10:45:46;;;;;;;64.93;30.33;;;6.90;99.90;;;;;;5032881;28;20773;-78
2022/01/16 10:48:14;;;;;;;65.23;29.30;;;6.90;99.90;;;;;;5031437;28;20232;-78
2022/01/16 10:50:43;;;;;;;62.47;29.07;;;6.90;99.90;;;;;;5035921;28;20234;-77
2022/01/16 10:53:12;;;;;;;60.03;27.83;;;6.90;99.90;;;;;;5033669;28;20250;-78
2022/01/16 10:55:41;;;;;;;58.47;27.57;;;7.00;99.90;;;;;;5039823;28;20317;-78
2022/01/16 10:58:11;;;;;;;58.37;28.20;;;7.00;99.90;;;;;;5032638;28;20640;-77
2022/01/16 11:00:40;;;;;;;61.40;28.83;;;7.00;99.90;;;;;;5035960;28;20230;-77
2022/01/16 11:03:11;;;;;;;62.90;27.73;;;7.00;99.90;;;;;;5029580;28;20380;-78
2022/01/16 11:05:41;;;;;;;61.63;28.47;;;7.00;99.90;;;;;;5036507;28;20231;-78
2022/01/16 11:08:12;;;;;;;86.47;28.50;;;7.00;99.90;;;;;;5041078;28;20230;-78
2022/01/16 11:10:40;;;;;;;64.43;29.23;;;7.10;99.90;;;;;;5039986;28;20908;-78
2022/01/16 11:13:09;;;;;;;57.83;27.53;;;7.10;99.90;;;;;;5036922;28;20230;-78
2022/01/16 11:15:38;;;;;;;51.87;24.63;;;7.10;99.90;;;;;;5039449;28;20236;-78
2022/01/16 11:18:06;;;;;;;51.93;25.47;;;7.10;99.90;;;;;;5051590;28;20320;-78
2022/01/16 11:20:37;;;;;;;47.17;23.70;;;7.10;99.90;;;;;;5043264;28;20243;-78
2022/01/16 11:23:13;;;;;;;47.27;24.33;;;7.10;99.90;;;;;;5038533;28;20228;-78
2022/01/16 11:25:41;;;;;;;47.50;22.43;;;7.20;99.90;;;;;;5046774;28;20326;-77
2022/01/16 11:28:14;;;;;;;47.23;23.90;;;7.20;99.90;;;;;;5033373;28;20241;-78
2022/01/16 11:30:45;;;;;;;43.63;21.93;;;7.20;99.90;;;;;;5043887;28;20973;-77
2022/01/16 11:33:12;;;;;;;49.03;22.30;;;7.20;99.90;;;;;;5029518;28;21104;-78
2022/01/16 11:35:50;;;;;;;42.90;21.60;;;7.20;99.90;;;;;;5039427;28;20353;-78
2022/01/16 11:38:20;;;;;;;43.73;21.30;;;7.20;99.90;;;;;;5040874;28;20265;-78
2022/01/16 11:40:48;;;;;;;38.67;20.33;;;7.20;99.90;;;;;;5029570;28;20228;-77
2022/01/16 11:43:23;;;;;;;39.63;21.50;;;7.20;99.90;;;;;;5038538;28;20300;-78
2022/01/16 11:45:52;;;;;;;41.03;20.80;;;7.20;99.90;;;;;;5044590;28;20281;-78
2022/01/16 11:48:34;;;;;;;38.87;20.80;;;7.20;99.90;;;;;;5047669;28;20234;-78
2022/01/16 11:51:03;;;;;;;39.43;20.53;;;7.30;99.90;;;;;;5051738;28;20220;-78
2022/01/16 11:54:08;;;;;;;42.57;20.87;;;7.20;99.90;;;;;;5043070;28;20231;-78
2022/01/16 11:57:30;;;;;;;37.90;19.37;;;7.30;99.90;;;;;;5047759;28;20310;-79
2022/01/16 12:00:09;;;;;;;40.87;20.00;;;7.30;99.90;;;;;;5038516;23;20229;-80
2022/01/16 12:02:44;;;;;;;38.00;19.70;;;7.30;99.90;;;;;;5058409;28;20234;-77
2022/01/16 12:05:11;;;;;;;42.37;20.27;;;7.30;99.90;;;;;;5055003;28;21099;-78
2022/01/16 12:07:49;;;;;;;41.40;21.30;;;7.30;99.90;;;;;;5025906;28;20242;-77
2022/01/16 12:10:44;;;;;;;38.70;20.43;;;7.30;99.90;;;;;;5051543;28;20282;-78
2022/01/16 12:13:52;;;;;;;40.77;21.47;;;7.30;99.90;;;;;;5015515;28;20238;-79
2022/01/16 12:16:47;;;;;;;40.80;20.67;;;7.40;99.90;;;;;;5034835;28;20251;-78
2022/01/16 12:19:44;;;;;;;37.30;19.73;;;7.40;99.90;;;;;;5046909;28;20250;-79
2022/01/16 12:22:14;;;;;;;42.17;20.83;;;7.30;99.90;;;;;;5042390;28;20227;-79
2022/01/16 12:24:47;;;;;;;42.07;21.50;;;7.40;99.90;;;;;;5027217;28;20234;-78
2022/01/16 12:27:39;;;;;;;45.03;22.57;;;7.40;99.90;;;;;;5031059;28;20218;-79
2022/01/16 12:30:17;;;;;;;44.17;22.13;;;7.40;99.90;;;;;;5023841;28;20241;-79
2022/01/16 12:32:55;;;;;;;46.50;24.13;;;7.40;99.90;;;;;;5029663;28;20247;-79
2022/01/16 12:36:08;;;;;;;47.97;23.13;;;7.40;99.90;;;;;;5033754;28;20234;-80
2022/01/16 12:38:40;;;;;;;48.93;24.03;;;7.40;99.90;;;;;;5029836;28;20235;-79
2022/01/16 12:41:10;;;;;;;46.03;24.27;;;7.40;99.90;;;;;;5026165;28;20251;-79
2022/01/16 12:43:43;;;;;;;47.70;24.43;;;7.40;99.90;;;;;;5045658;28;20253;-79
2022/01/16 12:46:12;;;;;;;48.40;24.03;;;7.40;99.90;;;;;;5028400;28;20661;-80
2022/01/16 12:48:41;;;;;;;49.67;24.67;;;7.50;99.90;;;;;;5035549;28;20235;-79
2022/01/16 12:51:09;;;;;;;50.67;24.87;;;7.50;99.90;;;;;;5031136;28;20674;-80
2022/01/16 12:53:38;;;;;;;49.40;25.70;;;7.50;99.90;;;;;;5043565;28;20239;-80
2022/01/16 12:56:28;;;;;;;50.27;24.80;;;7.50;99.90;;;;;;5045107;28;20234;-80
2022/01/16 12:58:57;;;;;;;54.37;26.70;;;7.60;99.90;;;;;;5040056;28;20735;-78
2022/01/16 13:01:25;;;;;;;54.17;26.70;;;7.60;99.90;;;;;;5046667;28;20236;-80
2022/01/16 13:03:52;;;;;;;55.17;26.03;;;7.60;99.90;;;;;;5035638;28;20315;-79
2022/01/16 13:06:21;;;;;;;59.20;25.83;;;7.70;99.90;;;;;;5051786;28;20866;-80
2022/01/16 13:08:57;;;;;;;55.93;26.53;;;7.70;99.90;;;;;;5042233;28;20255;-81
2022/01/16 13:11:27;;;;;;;59.60;27.23;;;7.60;99.90;;;;;;5022275;28;20240;-80
2022/01/16 13:13:55;;;;;;;58.07;26.07;;;7.70;99.90;;;;;;5038927;28;20733;-78
2022/01/16 13:16:23;;;;;;;56.47;26.47;;;7.70;99.90;;;;;;5043093;28;20256;-79
2022/01/16 13:19:15;;;;;;;56.10;28.43;;;7.70;99.90;;;;;;5039689;28;20282;-79
2022/01/16 13:22:02;;;;;;;56.27;27.87;;;7.70;99.90;;;;;;5029821;28;20226;-80